Terminal Aerodrome Forecast
Issued by NWS

Home | Current Version | Previous Version | Text Only | Print | Product List | Glossary On
Versions: 1 2 3 4 5 6 7 8 9 10 11 12 13 14 15
000
FTUS41 KILN 231950 AAA
TAFLUK
TAF AMD
KLUK 231950Z 2320/2418 11007KT 6SM -RA BR SCT018 BKN024 OVC070
     FM232100 10012G20KT 5SM -SHRA OVC030
     FM240000 09012G20KT P6SM VCSH OVC020
     FM240300 08012KT P6SM VCSH OVC020
     FM241200 08011KT 5SM -SHRA OVC012=

USA.gov is the U.S. government's official web portal to all federal, state and local government web resources and services.